Mariposa, CA (95338)

5:28 PM PDT on September 23, 2014 (GMT -0700)
Mariposa Fairgrounds | Change Station
CLOSE
Current Station
Personal Weather Station
Location: Mariposa, CA
Elevation: 1851 ft
Nearby Weather Stations

Elev 1851 ft 37.47 °N, 119.95 °W | Updated 53 seconds ago

Clear
Clear
90.0 °F
Feels Like 87 °F
N
2.0
Wind Variable Wind from SW
Gusts 2.0 mph

Today
High -- | Low -- °F
--% Chance of Precip.
Yesterday
High -- | Low -- °F
Precip. -- in
6:48 AM 6:54 PM
Waning Crescent, 0% visible
Pressure 29.95 in
Visibility 10.0 miles
Clouds Clear
Heat Index 87 °F
Dew Point 50 °F
Humidity 26%
Rainfall 0.00 in
Snow Depth 0 in , 2 in
UV 1 out of 12
Pollen 6.00 out of 12
Air Quality Not available.
Flu Activity Not available.
METAR KO22 240015Z AUTO 23005KT 10SM CLR 29/07 A2995 RMK AO1

More Conditions Fewer Conditions

Pressure 29.95 in
Visibility 10.0 miles
Clouds Clear
Heat Index 87 °F
Dew Point 50 °F
Humidity 26%
Rainfall 0.00 in
Snow Depth 0 in , 2 in
UV 1 out of 12
Pollen 6.00 out of 12
Air Quality Not available.
Flu Activity Not available.
METAR KO22 240015Z AUTO 23005KT 10SM CLR 29/07 A2995 RMK AO1

More Conditions Fewer Conditions

10-Day Weather Forecast

Almanac

Astronomy

Sep. 23, 2014 Rise Set
Actual Time 6:48 AM PDT 6:54 PM PDT
Civil Twilight 6:22 AM PDT 7:20 PM PDT
Nautical Twilight 5:51 AM PDT 7:51 PM PDT
Astronomical Twilight 5:20 AM PDT 8:22 PM PDT
Moon 6:17 AM PDT (9/23) 6:36 PM PDT (9/23)
Length of Visible Light 12h 58m
Length of Day
12h 06m
Tomorrow will be 2m 24s shorter.
Waning Crescent, 0% of the Moon is Illuminated
Today
Waning Crescent
Sep 24
New
Oct 1
First Quarter
Oct 8
Full
Oct 15
Last Quarter

Today's Extremes

State Highs State Lows

Community

WunderPhotos

Upload Photos

1,755,828 photos uploaded!

WunderBlogs® & News

Nearby

Snow Depth

Station Depth Elevation
Adin Mountain 0 in 6200 ft
CSS Lab 2 in 6900 ft
Summit Meadow 0 in 9122 ft

Earthquake Activity

City Distance Mag. Time & Date
No recent earthquake activity has been reported nearby.
Minimum magnitude displayed is 2.5.

Coastal Water Temperatures

Place Temperature
No Stations Reporting

Nearby Weather Stations